Time;durP1;ratioP1;P1;durP2;ratioP2;P2;SDS_P1;SDS_P2;PMS_P1;PMS_P2;Temp;Humidity;BMP_temperature;BMP_pressure;BME280_temperature;BME280_humidity;BME280_pressure;Samples;Min_cycle;Max_cycle;Signal;HPM_P1;HPM_P2
2022/11/21 07:06:17;;;;;;;16.48;14.73;;;;;;;5.75;100.00;100197.50;5279922;28;20395;-69
2022/11/21 07:08:53;;;;;;;15.90;14.23;;;;;;;5.79;100.00;100206.03;5279834;28;20036;-69
2022/11/21 07:11:24;;;;;;;16.73;13.30;;;;;;;5.78;100.00;100198.91;5280275;28;20490;-69
2022/11/21 07:13:55;;;;;;;15.73;14.07;;;;;;;5.82;100.00;100194.47;5260866;28;20021;-70
2022/11/21 07:16:30;;;;;;;26.33;20.77;;;;;;;5.84;100.00;100187.59;5263301;28;20024;-69
2022/11/21 07:19:02;;;;;;;16.17;12.63;;;;;;;5.88;100.00;100193.41;5274764;28;20028;-70
2022/11/21 07:21:33;;;;;;;15.77;13.25;;;;;;;5.91;100.00;100192.84;5258150;28;20383;-70
2022/11/21 07:24:08;;;;;;;15.00;12.23;;;;;;;5.91;100.00;100195.59;5259224;28;20024;-69
2022/11/21 07:26:39;;;;;;;17.15;11.40;;;;;;;5.91;100.00;100186.53;5258263;28;20439;-69
2022/11/21 07:29:10;;;;;;;15.93;12.02;;;;;;;5.93;100.00;100185.16;5259142;28;20033;-70
2022/11/21 07:31:42;;;;;;;16.65;11.70;;;;;;;5.97;100.00;100180.75;5258180;28;20096;-70
2022/11/21 07:34:13;;;;;;;15.60;11.23;;;;;;;5.96;100.00;100189.31;5268329;28;20127;-71
2022/11/21 07:36:44;;;;;;;12.35;11.05;;;;;;;5.96;100.00;100184.63;5279498;28;20027;-70
2022/11/21 07:39:15;;;;;;;13.00;10.18;;;;;;;5.96;100.00;100186.56;5261267;28;20025;-70
2022/11/21 07:41:47;;;;;;;14.07;10.07;;;;;;;6.00;100.00;100191.22;5257958;28;20543;-70
2022/11/21 07:44:18;;;;;;;12.38;9.52;;;;;;;6.03;100.00;100189.84;5258490;28;20033;-70
2022/11/21 07:46:53;;;;;;;11.88;8.82;;;;;;;6.05;100.00;100193.97;5258888;28;20029;-70
2022/11/21 07:49:24;;;;;;;20.85;9.45;;;;;;;6.05;100.00;100193.97;5256973;28;20021;-70
2022/11/21 07:51:57;;;;;;;11.15;8.38;;;;;;;6.08;100.00;100193.44;5274495;28;20494;-71
2022/11/21 07:54:28;;;;;;;9.55;7.78;;;;;;;6.07;100.00;100189.00;5278313;28;20033;-70
2022/11/21 07:56:59;;;;;;;11.70;7.72;;;;;;;6.10;100.00;100182.94;5279427;28;20025;-70
2022/11/21 07:59:31;;;;;;;10.40;7.53;;;;;;;6.14;100.00;100179.66;5279146;28;20056;-70
2022/11/21 08:02:02;;;;;;;10.10;7.13;;;;;;;6.15;100.00;100175.81;5278356;28;20033;-70
2022/11/21 08:04:33;;;;;;;10.85;7.35;;;;;;;6.11;100.00;100172.78;5278953;28;20396;-70
2022/11/21 08:07:05;;;;;;;16.95;8.32;;;;;;;6.05;100.00;100171.94;5277783;28;20017;-70
2022/11/21 08:09:36;;;;;;;12.15;6.72;;;;;;;6.11;100.00;100167.28;5257674;28;20021;-70
2022/11/21 08:12:07;;;;;;;9.50;6.43;;;;;;;6.12;100.00;100170.84;5261441;28;20478;-70
2022/11/21 08:14:39;;;;;;;10.23;7.45;;;;;;;6.14;100.00;100174.16;5279144;28;20471;-70
2022/11/21 08:17:10;;;;;;;12.27;7.43;;;;;;;6.12;100.00;100173.59;5266813;28;20086;-70
2022/11/21 08:19:41;;;;;;;8.98;6.13;;;;;;;6.12;100.00;100176.34;5264943;28;20033;-70
2022/11/21 08:22:13;;;;;;;12.10;6.53;;;;;;;6.15;100.00;100164.78;5264754;28;20381;-70
2022/11/21 08:24:44;;;;;;;9.75;6.15;;;;;;;6.17;100.00;100163.41;5257435;28;20545;-70
2022/11/21 08:27:19;;;;;;;8.27;5.95;;;;;;;6.15;100.00;100154.59;5244356;28;20024;-70
2022/11/21 08:29:50;;;;;;;8.60;5.13;;;;;;;6.21;100.00;100152.66;5243494;28;20142;-70
2022/11/21 08:32:22;;;;;;;13.07;5.70;;;;;;;6.14;100.00;100141.13;5243909;28;20108;-71
2022/11/21 08:34:53;;;;;;;10.27;5.57;;;;;;;6.17;100.00;100137.81;5244387;28;20038;-72
2022/11/21 08:37:26;;;;;;;10.32;5.80;;;;;;;6.24;100.00;100132.84;5245796;28;20108;-71
2022/11/21 08:39:59;;;;;;;9.88;5.53;;;;;;;6.19;100.00;100122.66;5265001;28;20479;-71
2022/11/21 08:42:30;;;;;;;6.47;4.57;;;;;;;6.29;100.00;100127.31;5263412;28;20082;-71
2022/11/21 08:45:02;;;;;;;8.93;5.65;;;;;;;6.28;100.00;100122.91;5263809;28;20029;-71
2022/11/21 08:47:34;;;;;;;10.85;6.18;;;;;;;6.35;100.00;100131.72;5264603;28;20052;-72
2022/11/21 08:50:05;;;;;;;10.35;5.10;;;;;;;6.28;100.00;100133.91;5264408;28;20017;-71
2022/11/21 08:52:37;;;;;;;10.23;4.90;;;;;;;6.25;100.00;100131.72;5263934;28;20067;-71
2022/11/21 08:55:08;;;;;;;8.85;4.85;;;;;;;6.21;100.00;100131.47;5264462;28;20021;-71
2022/11/21 08:57:41;;;;;;;10.88;4.82;;;;;;;6.14;100.00;100124.59;5248972;28;20465;-71
2022/11/21 09:00:13;;;;;;;7.15;5.18;;;;;;;6.16;100.00;100114.13;5243594;28;20492;-71
2022/11/21 09:02:44;;;;;;;8.05;5.10;;;;;;;6.16;100.00;100117.72;5242945;28;20048;-71
2022/11/21 09:05:15;;;;;;;8.93;5.15;;;;;;;6.17;100.00;100113.84;5242495;28;20125;-71
2022/11/21 09:07:47;;;;;;;9.40;5.03;;;;;;;6.27;100.00;100118.50;5243135;28;20080;-71
2022/11/21 09:10:18;;;;;;;7.10;5.45;;;;;;;6.17;100.00;100108.34;5243425;28;20025;-71
2022/11/21 09:12:49;;;;;;;7.70;5.13;;;;;;;6.27;100.00;100113.00;5251384;28;20017;-70
2022/11/21 09:18:11;;;;;;;13.07;7.90;;;;;;;6.33;100.00;100100.88;5243002;28;20089;-70
2022/11/21 09:20:43;;;;;;;11.80;4.85;;;;;;;6.35;100.00;100106.94;5242338;28;20053;-71
2022/11/21 09:23:15;;;;;;;8.32;4.60;;;;;;;6.35;100.00;100108.84;5242840;28;20026;-71
2022/11/21 09:25:46;;;;;;;11.25;5.60;;;;;;;6.41;100.00;100108.53;5242755;28;20021;-70
2022/11/21 09:28:18;;;;;;;15.48;7.20;;;;;;;6.41;100.00;100111.28;5241352;28;20128;-71
2022/11/21 09:30:49;;;;;;;12.02;6.05;;;;;;;6.46;100.00;100100.25;5242760;28;20021;-70
2022/11/21 09:33:20;;;;;;;10.65;5.93;;;;;;;6.39;100.00;100099.75;5242085;28;20163;-71
2022/11/21 09:35:51;;;;;;;9.52;5.00;;;;;;;6.42;100.00;100082.66;5242960;28;20388;-70
2022/11/21 09:38:23;;;;;;;10.52;4.20;;;;;;;6.40;100.00;100081.31;5242721;28;20025;-71
2022/11/21 09:41:50;;;;;;;9.10;4.50;;;;;;;6.44;100.00;100085.97;5241785;28;20128;-71
2022/11/21 09:44:03;;;;;;;9.23;4.55;;;;;;;6.46;100.00;100083.75;5242366;28;20127;-71
2022/11/21 09:46:44;;;;;;;8.18;4.47;;;;;;;6.43;100.00;100081.56;5251681;28;20471;-71
2022/11/21 09:49:16;;;;;;;10.38;4.68;;;;;;;6.47;100.00;100079.06;5261389;28;20029;-71
2022/11/21 09:51:48;;;;;;;9.35;4.82;;;;;;;6.53;100.00;100073.25;5263105;28;20396;-71
2022/11/21 09:54:33;;;;;;;10.05;4.57;;;;;;;6.67;100.00;100065.22;5262155;28;20029;-71
2022/11/21 09:57:04;;;;;;;12.10;5.20;;;;;;;6.73;100.00;100069.59;5262834;28;20476;-70
2022/11/21 09:59:38;;;;;;;9.07;6.10;;;;;;;6.79;100.00;100064.88;5262909;28;20032;-71
2022/11/21 10:02:27;;;;;;;6.65;4.30;;;;;;;6.83;100.00;100054.94;5261954;28;20036;-70
2022/11/21 10:04:59;;;;;;;8.57;5.00;;;;;;;6.89;100.00;100053.78;5262793;28;20049;-71
2022/11/21 10:07:33;;;;;;;10.02;4.78;;;;;;;6.87;100.00;100056.00;5260535;28;20158;-70
2022/11/21 10:10:20;;;;;;;7.10;4.07;;;;;;;6.92;100.00;100052.41;5262022;28;20025;-71
2022/11/21 10:13:26;;;;;;;7.85;3.80;;;;;;;7.03;100.00;100047.63;5262614;28;20041;-70
2022/11/21 10:16:07;;;;;;;9.90;4.47;;;;;;;7.04;100.00;100050.13;5261845;28;20112;-69
2022/11/21 10:19:15;;;;;;;19.83;13.20;;;;;;;7.02;100.00;100034.97;5262854;28;20021;-71
2022/11/21 10:22:22;;;;;;;14.63;10.05;;;;;;;7.01;100.00;100030.59;5256728;28;20484;-71
2022/11/21 10:24:59;;;;;;;8.85;4.05;;;;;;;7.05;100.00;100023.38;5261314;28;20044;-71
2022/11/21 10:27:56;;;;;;;12.10;5.25;;;;;;;7.11;100.00;100020.28;5262387;28;20029;-70
2022/11/21 10:30:28;;;;;;;7.35;3.67;;;;;;;7.17;100.00;100019.13;5261170;28;20047;-70
2022/11/21 10:33:14;;;;;;;8.15;3.75;;;;;;;7.26;100.00;100001.97;5262116;28;20052;-71
2022/11/21 10:35:51;;;;;;;9.63;3.80;;;;;;;7.29;100.00;100016.03;5262428;28;20082;-70
2022/11/21 10:38:28;;;;;;;10.77;3.70;;;;;;;7.24;100.00;100010.56;5261486;28;20036;-71
2022/11/21 10:41:26;;;;;;;6.88;3.33;;;;;;;7.28;100.00;100006.09;5261062;28;20108;-70
2022/11/21 10:46:58;;;;;;;10.93;5.45;;;;;;;7.33;100.00;100000.53;5260915;28;20033;-71
2022/11/21 10:49:33;;;;;;;7.25;3.15;;;;;;;7.73;100.00;99994.94;5252775;28;20032;-73
2022/11/21 10:52:10;;;;;;;6.43;4.05;;;;;;;7.62;100.00;99999.75;5261035;28;20028;-73
2022/11/21 10:55:03;;;;;;;7.68;3.80;;;;;;;7.70;100.00;99995.53;5248826;28;20032;-74
2022/11/21 10:57:42;;;;;;;8.93;4.40;;;;;;;7.74;100.00;99991.06;5254930;28;20091;-72
2022/11/21 11:00:19;;;;;;;6.65;3.92;;;;;;;7.87;100.00;99984.03;5259111;28;20036;-73
2022/11/21 11:02:53;;;;;;;8.48;4.63;;;;;;;8.19;100.00;99975.09;5252251;28;20029;-72
2022/11/21 11:05:27;;;;;;;13.80;4.32;;;;;;;8.02;97.40;99973.63;5240232;28;20049;-73
2022/11/21 11:08:07;;;;;;;9.48;3.75;;;;;;;8.31;99.48;99966.38;5258842;28;20536;-72
2022/11/21 11:10:44;;;;;;;9.73;4.25;;;;;;;8.21;96.88;99970.94;5261928;28;20029;-73
2022/11/21 11:13:33;;;;;;;10.20;3.70;;;;;;;8.33;97.00;99964.16;5261025;28;20384;-73
2022/11/21 11:16:10;;;;;;;7.47;4.43;;;;;;;8.45;96.84;99959.88;5244167;28;20049;-72
2022/11/21 11:18:46;;;;;;;13.95;4.30;;;;;;;8.53;97.21;99958.38;5245813;28;20451;-72
2022/11/21 11:21:23;;;;;;;9.93;4.75;;;;;;;8.40;93.10;99951.66;5261786;28;20037;-73
2022/11/21 11:24:19;;;;;;;7.70;5.03;;;;;;;8.45;92.20;99935.00;5261570;28;20082;-71
2022/11/21 11:27:06;;;;;;;8.13;3.75;;;;;;;8.41;91.89;99933.13;5261060;28;20017;-71
2022/11/21 11:29:50;;;;;;;7.22;3.47;;;;;;;8.44;91.41;99935.31;5261690;28;20028;-72
2022/11/21 11:32:21;;;;;;;8.00;3.38;;;;;;;8.53;91.75;99929.94;5249616;28;20477;-72
2022/11/21 11:34:57;;;;;;;14.98;9.77;;;;;;;8.62;92.22;99920.66;5240244;28;20033;-72
2022/11/21 11:37:31;;;;;;;18.25;11.68;;;;;;;8.75;92.75;99913.56;5240840;28;20109;-72
2022/11/21 11:40:21;;;;;;;7.05;3.85;;;;;;;8.74;89.13;99908.31;5240361;28;20030;-72
2022/11/21 11:49:16;;;;;;;10.57;5.32;;;;;;;9.02;90.77;99882.41;5259282;28;20045;-71
2022/11/21 11:51:53;;;;;;;9.38;5.10;;;;;;;8.73;86.42;99870.75;5263431;28;20021;-70
2022/11/21 11:54:42;;;;;;;6.55;4.00;;;;;;;8.71;86.12;99869.09;5264621;28;20386;-71
2022/11/21 11:57:13;;;;;;;6.60;3.45;;;;;;;8.82;87.38;99860.63;5265257;28;20025;-71
2022/11/21 11:59:55;;;;;;;7.32;3.10;;;;;;;8.89;88.96;99861.91;5254024;28;20025;-70
2022/11/21 12:02:41;;;;;;;8.82;3.45;;;;;;;8.93;87.16;99848.31;5244737;28;20028;-71
2022/11/21 12:05:20;;;;;;;9.10;3.22;;;;;;;8.91;85.02;99847.78;5261238;28;20053;-70
2022/11/21 12:08:18;;;;;;;5.85;3.00;;;;;;;8.98;85.34;99844.63;5252187;28;20033;-69
2022/11/21 12:13:47;;;;;;;6.45;3.45;;;;;;;8.89;83.69;99819.59;5248313;28;20076;-69
2022/11/21 12:16:20;;;;;;;7.43;3.00;;;;;;;8.82;81.81;99813.63;5259681;28;20052;-70
2022/11/21 12:19:02;;;;;;;7.60;2.75;;;;;;;8.91;84.04;99809.06;5261248;28;20040;-69
2022/11/21 12:21:33;;;;;;;25.98;20.48;;;;;;;8.81;81.88;99803.72;5244251;28;20025;-69
2022/11/21 12:24:10;;;;;;;8.02;6.38;;;;;;;8.81;84.12;99792.66;5257079;28;20121;-69
2022/11/21 12:27:14;;;;;;;5.38;2.72;;;;;;;8.84;85.24;99798.38;5258871;28;20542;-70
2022/11/21 12:30:04;;;;;;;8.20;2.45;;;;;;;8.84;85.37;99792.84;5243091;28;20399;-69
2022/11/21 12:33:08;;;;;;;5.60;2.58;;;;;;;8.74;85.22;99781.97;5244010;28;20037;-71
2022/11/21 12:35:51;;;;;;;9.68;2.78;;;;;;;8.74;84.61;99770.09;5243729;28;20025;-71
2022/11/21 12:38:42;;;;;;;6.63;3.15;;;;;;;8.73;84.66;99776.78;5244205;28;20079;-68
2022/11/21 12:44:59;;;;;;;6.57;2.60;;;;;;;8.66;83.26;99761.38;5243139;28;20037;-68
2022/11/21 12:57:00;;;;;;;7.10;2.60;;;;;;;8.66;83.66;99733.75;5256104;28;20037;-67
2022/11/21 12:59:55;;;;;;;6.65;2.40;;;;;;;8.68;83.23;99716.88;5247717;28;20391;-67
2022/11/21 13:02:40;;;;;;;6.88;2.33;;;;;;;8.61;82.62;99717.25;5252630;28;20029;-67
2022/11/21 13:05:23;;;;;;;5.70;2.40;;;;;;;8.68;84.16;99712.16;5260240;28;20092;-68
2022/11/21 13:08:02;;;;;;;6.25;2.35;;;;;;;8.69;83.18;99701.91;5254361;28;20026;-66
2022/11/21 13:10:41;;;;;;;6.55;2.72;;;;;;;8.70;84.15;99681.44;5242821;28;20037;-67
2022/11/21 13:13:33;;;;;;;5.35;2.42;;;;;;;8.70;83.97;99671.22;5256353;28;20029;-67
2022/11/21 13:16:10;;;;;;;7.78;2.42;;;;;;;8.63;83.69;99667.22;5245687;28;20100;-66
2022/11/21 13:18:45;;;;;;;11.65;4.88;;;;;;;8.64;83.80;99668.84;5256687;28;20033;-67
2022/11/21 13:21:48;;;;;;;7.30;2.92;;;;;;;8.85;85.64;99672.06;5242485;28;20036;-66
2022/11/21 13:24:44;;;;;;;6.18;2.85;;;;;;;8.67;84.17;99669.06;5242525;28;20040;-68
2022/11/21 13:27:29;;;;;;;5.85;2.95;;;;;;;8.63;84.92;99664.44;5242041;28;20099;-68
2022/11/21 13:30:06;;;;;;;8.30;3.58;;;;;;;8.58;83.36;99653.50;5243185;28;20033;-68
2022/11/21 13:32:43;;;;;;;6.78;2.40;;;;;;;8.58;84.12;99651.53;5260975;28;20037;-67
2022/11/21 13:35:20;;;;;;;5.90;2.58;;;;;;;8.54;84.06;99645.00;5245432;28;20029;-67
2022/11/21 13:37:51;;;;;;;7.15;2.40;;;;;;;8.50;84.40;99643.97;5251940;28;20028;-67
2022/11/21 13:40:25;;;;;;;5.85;2.47;;;;;;;8.43;84.77;99640.78;5262192;28;20025;-67
2022/11/21 13:43:09;;;;;;;6.90;2.75;;;;;;;8.49;85.44;99632.09;5263091;28;20068;-68
2022/11/21 13:45:49;;;;;;;6.97;3.03;;;;;;;8.53;84.93;99635.06;5256431;28;20468;-67
2022/11/21 13:48:39;;;;;;;9.55;2.90;;;;;;;8.63;86.71;99626.56;5244659;28;20483;-68
2022/11/21 13:51:49;;;;;;;7.82;3.20;;;;;;;8.73;87.07;99624.75;5241847;28;20096;-68
2022/11/21 13:54:45;;;;;;;9.75;4.65;;;;;;;8.76;86.65;99604.75;5240622;28;20544;-67
2022/11/21 13:57:34;;;;;;;15.43;4.27;;;;;;;8.73;86.44;99603.44;5241087;28;20445;-69
2022/11/21 14:00:27;;;;;;;7.20;3.38;;;;;;;8.84;86.64;99590.22;5240648;28;20480;-68
2022/11/21 14:03:25;;;;;;;6.30;3.28;;;;;;;8.71;85.40;99592.69;5239969;28;20029;-67
2022/11/21 14:06:22;;;;;;;13.30;3.55;;;;;;;8.59;85.97;99592.41;5240013;28;20057;-67
2022/11/21 14:09:23;;;;;;;9.70;3.47;;;;;;;8.56;86.73;99581.94;5247490;28;20040;-67
2022/11/21 14:12:04;;;;;;;9.65;4.35;;;;;;;8.49;86.46;99578.78;5244852;28;20029;-67
2022/11/21 14:14:50;;;;;;;8.20;3.22;;;;;;;8.53;87.29;99570.69;5237015;28;20112;-68
2022/11/21 14:17:46;;;;;;;6.95;3.20;;;;;;;8.53;86.71;99560.44;5253249;28;20033;-68
2022/11/21 14:20:20;;;;;;;3.97;2.75;;;;;;;8.51;86.89;99557.16;5243020;28;20032;-66
2022/11/21 14:22:57;;;;;;;7.97;3.17;;;;;;;8.49;88.08;99557.50;5238134;28;20435;-67
2022/11/21 14:25:48;;;;;;;9.32;3.30;;;;;;;8.61;87.63;99550.63;5239565;28;20036;-66
2022/11/21 14:28:29;;;;;;;8.45;2.92;;;;;;;8.43;88.04;99549.59;5249994;28;20033;-66
2022/11/21 14:31:09;;;;;;;11.68;3.53;;;;;;;8.43;88.61;99549.59;5246027;28;20040;-66
2022/11/21 14:33:44;;;;;;;8.05;3.50;;;;;;;8.52;88.74;99539.47;5243857;28;20017;-66
2022/11/21 14:36:19;;;;;;;13.82;7.82;;;;;;;8.52;89.19;99536.72;5254184;28;20033;-66
2022/11/21 14:39:15;;;;;;;6.65;3.85;;;;;;;8.78;89.84;99533.41;5248797;28;20025;-67
2022/11/21 14:41:59;;;;;;;12.07;4.70;;;;;;;8.61;88.64;99529.31;5251206;28;20065;-67
2022/11/21 14:44:34;;;;;;;7.20;3.55;;;;;;;8.56;88.35;99521.13;5261481;28;20044;-66
2022/11/21 14:47:13;;;;;;;7.13;3.78;;;;;;;8.52;88.50;99511.84;5246518;28;20034;-67
2022/11/21 14:50:01;;;;;;;7.90;3.85;;;;;;;8.60;89.71;99504.78;5240388;28;20017;-67
2022/11/21 14:52:33;;;;;;;5.68;3.92;;;;;;;8.55;88.76;99502.13;5241212;28;20129;-67
2022/11/21 14:55:18;;;;;;;10.00;5.82;;;;;;;8.56;89.35;99503.75;5241776;28;20372;-67
2022/11/21 14:57:51;;;;;;;10.25;3.65;;;;;;;8.53;89.02;99498.84;5246539;28;20025;-67
2022/11/21 15:00:25;;;;;;;7.25;3.40;;;;;;;8.56;89.62;99482.44;5242129;28;20451;-67
2022/11/21 15:02:57;;;;;;;6.00;3.47;;;;;;;8.54;89.21;99479.19;5261765;28;20372;-67
2022/11/21 15:05:32;;;;;;;6.93;3.38;;;;;;;8.69;90.40;99473.34;5244535;28;20423;-67
2022/11/21 15:08:04;;;;;;;11.05;3.83;;;;;;;8.77;89.78;99465.41;5260326;28;20021;-67
2022/11/21 15:10:36;;;;;;;7.72;3.67;;;;;;;8.57;89.50;99462.00;5260947;28;20028;-67
2022/11/21 15:13:11;;;;;;;11.40;3.97;;;;;;;8.71;88.79;99457.22;5250934;28;20030;-67
2022/11/21 15:15:49;;;;;;;7.40;4.32;;;;;;;8.64;89.89;99456.88;5244399;28;20026;-66
2022/11/21 15:18:23;;;;;;;6.85;3.45;;;;;;;8.50;89.32;99456.06;5241339;28;20070;-67
2022/11/21 15:21:02;;;;;;;5.45;3.17;;;;;;;8.69;89.32;99450.38;5261250;28;20021;-67
2022/11/21 15:23:39;;;;;;;10.20;3.35;;;;;;;8.84;89.07;99443.69;5253742;28;20033;-67
2022/11/21 15:26:25;;;;;;;5.88;3.53;;;;;;;8.76;89.29;99441.69;5240982;28;20170;-67
2022/11/21 15:28:58;;;;;;;5.45;3.42;;;;;;;8.75;88.95;99423.47;5244295;28;20030;-67
2022/11/21 15:31:29;;;;;;;10.52;3.78;;;;;;;8.78;88.62;99422.84;5263133;28;20029;-67
2022/11/21 15:34:03;;;;;;;7.75;3.60;;;;;;;8.78;88.73;99407.06;5244686;28;20109;-67
2022/11/21 15:36:34;;;;;;;8.68;6.68;;;;;;;8.80;88.62;99387.41;5244368;28;20037;-68
2022/11/21 15:39:11;;;;;;;7.43;4.07;;;;;;;8.68;88.92;99393.47;5243595;28;20048;-68
2022/11/21 15:41:42;;;;;;;6.88;3.72;;;;;;;8.66;88.92;99385.50;5245007;28;20026;-68
2022/11/21 15:44:19;;;;;;;7.07;3.90;;;;;;;8.69;89.94;99382.13;5257240;28;20029;-68
2022/11/21 15:46:51;;;;;;;6.53;3.67;;;;;;;8.68;89.46;99379.66;5257163;28;20024;-69
2022/11/21 15:49:23;;;;;;;13.77;8.02;;;;;;;8.63;89.52;99383.34;5249212;28;20096;-68
2022/11/21 15:51:54;;;;;;;9.30;4.13;;;;;;;8.68;89.65;99379.66;5244779;28;20394;-67
2022/11/21 15:54:26;;;;;;;7.55;4.63;;;;;;;8.71;89.50;99374.31;5243756;28;20116;-68
2022/11/21 15:56:57;;;;;;;7.30;3.60;;;;;;;8.68;89.66;99369.41;5244686;28;20033;-67
2022/11/21 15:59:29;;;;;;;9.48;4.47;;;;;;;8.68;89.62;99374.94;5244195;28;20026;-67
2022/11/21 16:02:00;;;;;;;9.18;5.32;;;;;;;8.59;88.46;99368.56;5243542;28;20024;-68
2022/11/21 16:04:31;;;;;;;9.73;3.85;;;;;;;8.64;89.55;99373.13;5254705;28;20515;-67
2022/11/21 16:07:03;;;;;;;8.27;4.85;;;;;;;8.60;88.79;99367.41;5248253;28;20034;-68
2022/11/21 16:09:35;;;;;;;18.42;12.77;;;;;;;8.59;89.12;99359.41;5244139;28;20048;-68
2022/11/21 16:12:07;;;;;;;16.48;13.13;;;;;;;8.64;88.78;99362.06;5254219;28;20048;-68
2022/11/21 16:14:39;;;;;;;10.82;3.63;;;;;;;8.65;88.88;99353.47;5247023;28;20449;-69
2022/11/21 16:17:20;;;;;;;8.57;3.47;;;;;;;8.78;89.24;99346.25;5244279;28;20030;-70
2022/11/21 16:19:51;;;;;;;8.98;3.53;;;;;;;8.67;88.76;99351.22;5244194;28;20348;-72
2022/11/21 16:22:25;;;;;;;9.77;5.07;;;;;;;8.64;88.90;99338.03;5243805;28;20029;-73
2022/11/21 16:24:56;;;;;;;8.57;4.15;;;;;;;8.62;88.33;99342.25;5258009;28;20031;-73
2022/11/21 16:27:30;;;;;;;10.00;3.20;;;;;;;8.64;88.08;99340.78;5244047;28;20204;-73
2022/11/21 16:30:02;;;;;;;9.07;4.00;;;;;;;8.49;88.00;99328.16;5247255;28;20372;-74
2022/11/21 16:32:33;;;;;;;8.98;3.75;;;;;;;8.54;88.40;99324.47;5261807;28;20128;-73
2022/11/21 16:35:05;;;;;;;9.32;4.03;;;;;;;8.58;88.40;99319.91;5262982;28;20028;-74
2022/11/21 16:37:39;;;;;;;8.88;4.25;;;;;;;8.61;88.14;99312.94;5258090;28;20032;-74
